Time;durP1;ratioP1;P1;durP2;ratioP2;P2;SDS_P1;SDS_P2;PMS_P1;PMS_P2;Temp;Humidity;BMP_temperature;BMP_pressure;BME280_temperature;BME280_humidity;BME280_pressure;Samples;Min_cycle;Max_cycle;Signal;HPM_P1;HPM_P2
2022/07/28 00:02:17;;;;;;;;;2.33;2.33;;;;;20.99;37.65;101116.94;5017348;28;45533;-66
2022/07/28 00:04:43;;;;;;;;;1.00;1.00;;;;;21.01;37.72;101125.69;5017356;28;45384;-64
2022/07/28 00:07:08;;;;;;;;;2.00;2.00;;;;;21.00;37.73;101139.41;5032270;28;47308;-65
2022/07/28 00:09:33;;;;;;;;;3.67;2.00;;;;;20.83;37.72;101088.44;5016808;28;45402;-65
2022/07/28 00:11:59;;;;;;;;;1.00;1.00;;;;;20.96;37.73;101115.47;5015746;28;45538;-66
2022/07/28 00:14:25;;;;;;;;;3.00;3.00;;;;;20.91;37.48;101106.31;5017263;28;45450;-65
2022/07/28 00:16:50;;;;;;;;;1.67;1.67;;;;;20.89;37.90;101125.44;5016774;28;46078;-66
2022/07/28 00:19:16;;;;;;;;;1.00;1.00;;;;;20.84;37.97;101119.81;5016953;28;45470;-65
2022/07/28 00:21:41;;;;;;;;;1.00;1.00;;;;;20.86;38.05;101120.47;5016805;28;45309;-67
2022/07/28 00:24:06;;;;;;;;;2.00;2.00;;;;;20.73;37.89;101096.06;5032451;28;45286;-66
2022/07/28 00:26:32;;;;;;;;;3.67;3.67;;;;;20.85;38.09;101113.38;5015274;28;47405;-65
2022/07/28 00:28:57;;;;;;;;;3.00;2.00;;;;;20.88;37.90;101110.28;5016721;28;45324;-65
2022/07/28 00:31:23;;;;;;;;;3.00;3.00;;;;;20.78;38.36;101103.56;5016479;28;45448;-65
2022/07/28 00:33:48;;;;;;;;;3.00;3.00;;;;;20.74;38.25;101081.53;5017065;28;45474;-66
2022/07/28 00:36:13;;;;;;;;;1.00;1.00;;;;;20.83;37.80;101083.03;5015091;28;47570;-65
2022/07/28 00:38:40;;;;;;;;;3.00;3.00;;;;;20.87;37.99;101084.28;5016515;28;45537;-64
2022/07/28 00:41:11;;;;;;;;;3.33;2.00;;;;;20.92;38.00;101087.19;5016799;28;45240;-64
2022/07/28 00:43:37;;;;;;;;;1.00;1.00;;;;;21.01;37.86;101087.00;5016707;28;45332;-66
2022/07/28 00:46:04;;;;;;;;;1.67;1.33;;;;;21.03;37.66;101084.97;5016173;28;46741;-65
2022/07/28 00:48:30;;;;;;;;;3.00;1.00;;;;;21.00;37.54;101074.53;5016532;28;45233;-66
2022/07/28 00:50:55;;;;;;;;;2.00;2.00;;;;;21.02;37.82;101078.69;5016311;28;45544;-67
2022/07/28 00:53:22;;;;;;;;;2.00;2.00;;;;;20.79;38.03;101068.22;5016719;28;45407;-66
2022/07/28 00:55:47;;;;;;;;;2.00;2.00;;;;;20.84;37.45;101081.16;5016080;28;45559;-66
2022/07/28 00:58:13;;;;;;;;;1.00;1.00;;;;;20.83;38.11;101091.13;5016352;28;45477;-65
2022/07/28 01:00:38;;;;;;;;;2.67;2.00;;;;;20.90;38.02;101086.56;5016514;28;45532;-65
2022/07/28 01:03:05;;;;;;;;;2.00;2.00;;;;;20.74;37.96;101059.91;5016546;28;45387;-66
2022/07/28 01:06:03;;;;;;;;;1.33;1.33;;;;;20.88;38.20;101077.00;5014824;28;46330;-65
2022/07/28 01:08:45;;;;;;;;;3.00;3.00;;;;;20.88;38.14;101074.31;5007640;28;45419;-66
2022/07/28 01:11:28;;;;;;;;;2.00;2.00;;;;;20.74;37.97;101073.41;5019009;28;45498;-65
2022/07/28 01:14:09;;;;;;;;;2.00;2.00;;;;;20.28;38.33;101006.53;5019879;28;45534;-65
2022/07/28 01:16:44;;;;;;;;;1.67;1.67;;;;;20.55;38.44;101052.56;5018064;28;47653;-65
2022/07/28 01:19:42;;;;;;;;;3.00;1.00;;;;;20.68;38.53;101062.59;5019561;28;45276;-66
2022/07/28 01:22:11;;;;;;;;;2.00;2.00;;;;;20.71;38.58;101065.72;5019275;28;45374;-65
2022/07/28 01:24:53;;;;;;;;;1.00;1.00;;;;;20.75;38.51;101061.56;5019434;28;45253;-66
2022/07/28 01:27:41;;;;;;;;;2.00;2.00;;;;;20.73;38.52;101058.25;5017788;28;47769;-66
2022/07/28 01:30:28;;;;;;;;;1.00;1.00;;;;;20.77;38.35;101062.19;5033878;28;45437;-64
2022/07/28 01:33:28;;;;;;;;;1.00;1.00;;;;;20.58;38.68;101066.50;5019391;28;45428;-65
2022/07/28 01:36:00;;;;;;;;;1.00;1.00;;;;;20.59;38.65;101056.53;5011853;28;46069;-66
2022/07/28 01:38:31;;;;;;;;;2.00;2.00;;;;;20.46;38.45;101048.38;5019120;28;46281;-64
2022/07/28 01:40:59;;;;;;;;;2.33;2.33;;;;;20.60;38.75;101058.19;5019363;28;45558;-64
2022/07/28 01:43:27;;;;;;;;;1.33;1.33;;;;;20.51;38.71;101044.03;5019162;28;45241;-65
2022/07/28 01:45:54;;;;;;;;;1.00;1.00;;;;;20.52;38.41;101045.69;5017812;28;45460;-64
2022/07/28 01:48:23;;;;;;;;;2.67;1.67;;;;;20.42;38.91;101041.69;5019159;28;45284;-63
2022/07/28 01:50:50;;;;;;;;;1.33;1.00;;;;;20.34;39.13;101032.72;5017630;28;45526;-65
2022/07/28 01:53:16;;;;;;;;;2.67;1.33;;;;;20.33;39.24;101047.25;5019299;28;45265;-66
2022/07/28 01:55:52;;;;;;;;;1.67;1.67;;;;;19.99;39.35;101007.59;5019362;28;45235;-66
2022/07/28 01:58:21;;;;;;;;;0.00;0.00;;;;;20.28;39.53;101047.03;5018955;28;46108;-66
2022/07/28 02:00:49;;;;;;;;;2.00;2.00;;;;;20.19;39.51;101018.50;5018988;28;45298;-64
2022/07/28 02:03:17;;;;;;;;;1.00;1.00;;;;;20.35;39.41;101037.06;5019025;28;45488;-66
2022/07/28 02:05:44;;;;;;;;;1.00;1.00;;;;;20.41;39.46;101045.44;5019069;28;45372;-66
2022/07/28 02:08:11;;;;;;;;;1.00;1.00;;;;;20.22;39.63;101034.34;5018714;28;45921;-66
2022/07/28 02:10:41;;;;;;;;;1.67;1.67;;;;;19.68;39.76;100959.50;5018770;28;45427;-64
2022/07/28 02:13:09;;;;;;;;;1.00;1.00;;;;;20.11;39.81;101034.03;5034473;28;45544;-65
2022/07/28 02:15:36;;;;;;;;;1.33;1.33;;;;;20.12;40.17;101033.00;5018708;28;45348;-65
2022/07/28 02:18:01;;;;;;;;;2.00;1.00;;;;;20.11;40.12;101023.25;5018304;28;45637;-65
2022/07/28 02:20:28;;;;;;;;;2.33;2.00;;;;;20.09;40.10;101018.06;5018043;28;45588;-66
2022/07/28 02:22:56;;;;;;;;;1.00;1.00;;;;;20.12;40.17;101008.72;5018726;28;45350;-66
2022/07/28 02:25:21;;;;;;;;;2.33;2.33;;;;;20.12;39.83;101006.84;5017296;28;45342;-66
2022/07/28 02:27:59;;;;;;;;;1.33;1.33;;;;;20.18;39.92;101021.41;5018252;28;45810;-65
2022/07/28 02:30:43;;;;;;;;;3.67;1.67;;;;;20.05;40.38;101016.78;5018551;28;45317;-65
2022/07/28 02:33:22;;;;;;;;;3.33;2.00;;;;;20.06;40.33;101023.84;5018590;28;45375;-65
2022/07/28 02:35:55;;;;;;;;;1.33;1.33;;;;;20.02;40.26;101006.38;5018677;28;45363;-66
2022/07/28 02:38:28;;;;;;;;;2.00;2.00;;;;;20.01;40.37;101010.94;5018250;28;45797;-68
2022/07/28 02:40:58;;;;;;;;;2.00;2.00;;;;;19.99;40.80;101001.38;5018321;28;45485;-66
2022/07/28 02:43:27;;;;;;;;;1.00;1.00;;;;;20.05;40.48;101008.69;5033140;28;45277;-65
2022/07/28 02:45:55;;;;;;;;;1.00;1.00;;;;;19.81;40.14;100952.50;5018322;28;45574;-66
2022/07/28 02:48:26;;;;;;;;;1.00;1.00;;;;;20.18;40.37;101022.25;5017806;28;46983;-66
2022/07/28 02:50:55;;;;;;;;;3.33;2.00;;;;;20.08;40.58;101019.09;5017971;28;45352;-66
2022/07/28 02:53:22;;;;;;;;;3.00;3.00;;;;;19.98;40.64;101011.34;5018318;28;45580;-66
2022/07/28 02:55:49;;;;;;;;;2.00;1.67;;;;;19.99;40.96;101025.66;5018282;28;45542;-64
2022/07/28 02:58:18;;;;;;;;;2.00;2.00;;;;;19.94;40.92;101014.63;5017587;28;45457;-67
2022/07/28 03:00:48;;;;;;;;;2.00;2.00;;;;;20.01;40.99;101010.94;5016666;28;45517;-66
2022/07/28 03:03:16;;;;;;;;;2.00;2.00;;;;;19.97;40.59;101008.84;5033452;28;45428;-65
2022/07/28 03:05:42;;;;;;;;;2.00;2.00;;;;;20.11;40.40;101015.16;5016824;28;45590;-65
2022/07/28 03:08:08;;;;;;;;;1.00;1.00;;;;;20.08;40.70;101008.28;5017730;28;45549;-66
2022/07/28 03:10:33;;;;;;;;;2.33;2.33;;;;;20.12;40.55;101012.25;5017668;28;45474;-67
2022/07/28 03:12:59;;;;;;;;;2.00;2.00;;;;;20.15;40.27;101006.44;5017848;28;45438;-65
2022/07/28 03:15:25;;;;;;;;;5.00;3.33;;;;;20.22;40.02;101017.28;5018133;28;45592;-64
2022/07/28 03:17:50;;;;;;;;;2.00;2.00;;;;;20.24;40.21;101015.22;5017632;28;47001;-66
2022/07/28 03:20:15;;;;;;;;;1.00;1.00;;;;;19.68;40.37;100927.13;5017498;28;45425;-66
2022/07/28 03:22:41;;;;;;;;;3.00;1.00;;;;;20.06;40.54;101002.25;5017751;28;45316;-65
2022/07/28 03:25:23;;;;;;;;;2.00;2.00;;;;;20.23;40.40;101022.50;5017621;28;45603;-64
2022/07/28 03:27:52;;;;;;;;;3.00;3.00;;;;;20.18;40.48;101016.00;5017515;28;46354;-66
2022/07/28 03:30:23;;;;;;;;;2.67;2.67;;;;;20.19;40.39;101013.09;5017391;28;45332;-65
2022/07/28 03:32:58;;;;;;;;;2.67;2.67;;;;;20.25;40.18;101012.31;5016700;28;45249;-65
2022/07/28 03:35:24;;;;;;;;;2.00;2.00;;;;;20.16;40.39;100991.91;5017522;28;45265;-65
2022/07/28 03:37:58;;;;;;;;;3.00;3.00;;;;;20.13;40.41;101008.53;4999180;28;46019;-67
2022/07/28 03:40:28;;;;;;;;;3.33;3.33;;;;;19.96;40.79;100972.09;5015562;28;45407;-66
2022/07/28 03:42:55;;;;;;;;;4.00;4.00;;;;;20.00;40.51;101000.34;5016171;28;45357;-65
2022/07/28 03:45:20;;;;;;;;;2.00;2.00;;;;;19.78;40.70;100979.88;5017562;28;45218;-64
2022/07/28 03:47:55;;;;;;;;;3.00;2.00;;;;;20.02;40.69;101014.47;5016983;28;45424;-65
2022/07/28 03:50:23;;;;;;;;;2.00;2.00;;;;;20.01;40.64;101007.41;5016999;28;45468;-66
2022/07/28 03:52:48;;;;;;;;;3.00;3.00;;;;;19.93;40.95;101002.19;5017289;28;45343;-66
2022/07/28 03:55:14;;;;;;;;;2.67;2.67;;;;;19.79;41.04;100987.78;5017466;28;45285;-66
2022/07/28 03:57:40;;;;;;;;;2.00;2.00;;;;;19.98;40.80;101010.50;5032398;28;46110;-67
2022/07/28 04:00:06;;;;;;;;;2.67;2.33;;;;;20.08;40.59;101011.00;5017009;28;45655;-66
2022/07/28 04:02:33;;;;;;;;;4.00;2.67;;;;;20.06;40.98;101013.06;5017292;28;45398;-67
2022/07/28 04:04:59;;;;;;;;;3.33;3.00;;;;;19.93;40.58;100989.53;5017166;28;45481;-66
2022/07/28 04:07:24;;;;;;;;;2.00;2.00;;;;;19.91;41.09;100988.06;5017012;28;45604;-64
2022/07/28 04:09:49;;;;;;;;;2.00;2.00;;;;;19.93;41.02;100997.63;5016632;28;45328;-64
2022/07/28 04:12:17;;;;;;;;;3.67;3.00;;;;;19.99;41.11;101001.38;5017182;28;45442;-65
2022/07/28 04:14:43;;;;;;;;;2.00;2.00;;;;;19.94;41.27;101011.94;5032570;28;45580;-66
2022/07/28 04:17:08;;;;;;;;;5.33;3.67;;;;;19.98;41.13;101013.22;5016515;28;45637;-66
2022/07/28 04:19:43;;;;;;;;;5.00;4.00;;;;;19.80;41.44;100980.50;5015241;28;45450;-65
2022/07/28 04:22:08;;;;;;;;;3.00;3.00;;;;;19.96;41.47;100996.38;5016984;28;45402;-66
2022/07/28 04:24:34;;;;;;;;;4.33;4.33;;;;;20.00;41.38;101001.19;5017015;28;45245;-66
2022/07/28 04:26:59;;;;;;;;;2.67;2.67;;;;;19.86;41.01;100983.25;5016419;28;45655;-65
2022/07/28 04:29:27;;;;;;;;;3.67;3.67;;;;;19.96;41.68;101001.78;5015309;28;45465;-66
2022/07/28 04:31:53;;;;;;;;;3.00;3.00;;;;;19.89;41.56;100995.53;5016754;28;45311;-66
2022/07/28 04:34:18;;;;;;;;;3.00;3.00;;;;;19.89;41.65;100990.13;5017020;28;45518;-66
2022/07/28 04:36:55;;;;;;;;;4.00;4.00;;;;;19.75;41.70;100978.41;5016850;28;46365;-66
2022/07/28 04:39:20;;;;;;;;;3.67;3.67;;;;;19.61;41.83;100968.56;5016666;28;45507;-66
2022/07/28 04:41:45;;;;;;;;;5.33;3.00;;;;;19.80;41.64;100991.28;5016406;28;45231;-66
2022/07/28 04:44:11;;;;;;;;;3.33;3.33;;;;;19.96;41.90;100999.06;5018081;28;45470;-64
2022/07/28 04:46:36;;;;;;;;;3.33;3.33;;;;;20.04;41.71;100994.38;5019839;28;46980;-65
2022/07/28 04:49:03;;;;;;;;;4.33;4.33;;;;;19.06;41.49;100839.00;5035019;28;46531;-65
2022/07/28 04:51:28;;;;;;;;;4.33;2.33;;;;;20.03;41.73;101003.50;5020249;28;45525;-65
2022/07/28 04:53:56;;;;;;;;;6.00;4.67;;;;;19.71;41.99;100959.09;5020878;28;45377;-66
2022/07/28 04:56:21;;;;;;;;;6.00;4.00;;;;;19.86;41.97;100985.13;5019436;28;46323;-65
2022/07/28 04:58:47;;;;;;;;;5.33;5.00;;;;;19.84;42.26;101006.09;5019762;28;45436;-66
2022/07/28 05:01:12;;;;;;;;;6.33;4.00;;;;;19.75;42.29;100994.59;5019840;28;45384;-64
2022/07/28 05:03:37;;;;;;;;;4.00;4.00;;;;;19.68;42.28;100964.91;5019941;28;45524;-67
2022/07/28 05:06:03;;;;;;;;;6.33;5.00;;;;;19.87;42.10;100987.63;5019067;28;45998;-65
2022/07/28 05:08:29;;;;;;;;;3.33;2.00;;;;;19.73;41.69;100948.94;5019794;28;45187;-66
2022/07/28 05:10:55;;;;;;;;;5.33;4.00;;;;;19.95;41.70;100975.81;5019883;28;45466;-65
2022/07/28 05:13:21;;;;;;;;;4.67;3.67;;;;;20.11;42.08;100991.69;5019871;28;45447;-66
2022/07/28 05:15:46;;;;;;;;;4.33;4.00;;;;;20.15;41.67;101001.06;5019064;28;45639;-67
2022/07/28 05:18:11;;;;;;;;;4.00;3.00;;;;;20.11;41.34;100971.97;5019485;28;45263;-65
2022/07/28 05:20:37;;;;;;;;;4.00;4.00;;;;;20.28;41.25;101003.81;5019760;28;45241;-65
2022/07/28 05:23:02;;;;;;;;;6.33;5.00;;;;;20.32;41.22;101007.78;5018306;28;45188;-65
2022/07/28 05:25:28;;;;;;;;;4.00;3.00;;;;;20.33;41.09;101009.44;5019187;28;46988;-65
2022/07/28 05:27:54;;;;;;;;;4.00;4.00;;;;;20.37;40.86;101004.47;5019247;28;45458;-65
2022/07/28 05:30:21;;;;;;;;;5.00;3.67;;;;;20.41;40.75;101008.47;5019018;28;45286;-65
2022/07/28 05:32:47;;;;;;;;;3.00;3.00;;;;;20.19;40.97;100963.69;5019565;28;45479;-66
2022/07/28 05:35:13;;;;;;;;;4.00;4.00;;;;;20.44;40.86;100988.34;5018969;28;46788;-66
2022/07/28 05:37:39;;;;;;;;;3.00;3.00;;;;;20.44;40.84;100994.56;5017469;28;45824;-64
2022/07/28 05:40:12;;;;;;;;;5.00;5.00;;;;;20.32;40.69;100975.38;5019142;28;45190;-66
2022/07/28 05:42:39;;;;;;;;;5.00;5.00;;;;;20.55;40.55;100995.84;5019415;28;45481;-68
2022/07/28 05:45:07;;;;;;;;;3.00;3.00;;;;;20.54;40.51;100996.88;5018793;28;45775;-66
2022/07/28 05:47:42;;;;;;;;;4.00;4.00;;;;;20.08;40.54;100908.44;5019234;28;45221;-67
2022/07/28 05:50:08;;;;;;;;;2.67;2.67;;;;;20.67;40.54;101005.03;5018808;28;45178;-66
2022/07/28 05:52:34;;;;;;;;;4.67;4.33;;;;;20.65;40.34;100990.91;5034183;28;45344;-65
2022/07/28 05:54:59;;;;;;;;;2.67;2.00;;;;;20.56;40.70;100981.28;5018068;28;53209;-66
2022/07/28 05:57:24;;;;;;;;;7.67;4.67;;;;;20.73;40.42;100998.81;5018056;28;50099;-66
2022/07/28 05:59:50;;;;;;;;;5.00;3.00;;;;;20.71;40.19;100990.06;5018831;28;45414;-66
2022/07/28 06:02:15;;;;;;;;;3.00;3.00;;;;;20.80;40.29;100999.63;5018941;28;45371;-66
2022/07/28 06:04:41;;;;;;;;;5.33;5.33;;;;;20.93;39.94;101001.53;5018880;28;45937;-66
2022/07/28 06:07:06;;;;;;;;;4.00;4.00;;;;;20.74;40.09;100968.03;5017151;28;45545;-66
2022/07/28 06:09:31;;;;;;;;;6.00;5.00;;;;;20.74;40.03;100978.84;5018689;28;45403;-67
2022/07/28 06:11:57;;;;;;;;;6.00;5.67;;;;;20.93;39.88;100993.44;5018976;28;45379;-67
2022/07/28 06:14:22;;;;;;;;;3.33;2.67;;;;;21.04;39.74;100990.13;5018479;28;45723;-64
2022/07/28 06:16:49;;;;;;;;;1.33;1.00;;;;;21.24;39.48;101001.00;5018245;28;45279;-65
2022/07/28 06:19:18;;;;;;;;;3.00;3.00;;;;;21.21;39.04;100985.97;5018591;28;45212;-66
2022/07/28 06:21:43;;;;;;;;;5.00;3.33;;;;;21.24;39.14;101006.41;5018776;28;45343;-66
2022/07/28 06:24:09;;;;;;;;;4.00;4.00;;;;;21.22;39.09;100976.84;5018278;28;45327;-66
2022/07/28 06:26:36;;;;;;;;;5.00;5.00;;;;;21.35;39.27;101002.22;5018114;28;45463;-66
2022/07/28 06:29:02;;;;;;;;;5.00;4.00;;;;;21.41;38.95;101004.09;5018103;28;45448;-66
2022/07/28 06:31:28;;;;;;;;;5.67;4.00;;;;;21.52;39.12;101007.00;5018635;28;45241;-67
2022/07/28 06:33:53;;;;;;;;;3.33;3.33;;;;;21.69;38.67;101010.13;5016332;28;47399;-65
2022/07/28 06:36:18;;;;;;;;;5.00;4.00;;;;;21.69;38.14;100993.03;5018273;28;45312;-66
2022/07/28 06:38:44;;;;;;;;;4.00;3.00;;;;;21.83;38.44;101010.94;5018422;28;45338;-66
2022/07/28 06:41:09;;;;;;;;;8.00;4.33;;;;;21.66;37.88;100979.94;5018323;28;45482;-67
2022/07/28 06:43:35;;;;;;;;;2.33;2.33;;;;;21.97;38.30;101017.97;5017947;28;46521;-66
2022/07/28 06:46:00;;;;;;;;;4.33;4.00;;;;;22.07;38.13;101007.56;5018033;28;46498;-66
2022/07/28 06:48:26;;;;;;;;;6.00;5.00;;;;;22.21;37.68;101004.78;5018171;28;45505;-65
2022/07/28 06:50:51;;;;;;;;;5.33;4.33;;;;;22.42;37.30;101009.91;5017960;28;45191;-66
2022/07/28 06:53:17;;;;;;;;;6.00;5.00;;;;;22.62;36.87;100996.25;5016137;28;47202;-67
2022/07/28 06:55:42;;;;;;;;;4.00;4.00;;;;;22.98;36.21;100973.97;5017891;28;45327;-68
2022/07/28 06:58:07;;;;;;;;;6.67;5.67;;;;;23.61;35.37;100998.28;5017876;28;45506;-67
2022/07/28 07:00:33;;;;;;;;;5.00;5.00;;;;;24.28;34.60;101004.69;5017876;28;45154;-67
2022/07/28 07:02:58;;;;;;;;;6.00;6.00;;;;;24.54;33.38;100998.91;5016284;28;46268;-66
2022/07/28 07:05:24;;;;;;;;;2.33;2.33;;;;;24.58;33.26;100983.81;5017846;28;45365;-67
2022/07/28 07:07:50;;;;;;;;;6.33;5.00;;;;;24.93;33.10;101002.13;5015168;28;45330;-67
2022/07/28 07:10:15;;;;;;;;;5.00;4.67;;;;;25.05;32.83;100997.59;5017906;28;45540;-66
2022/07/28 07:12:41;;;;;;;;;5.00;5.00;;;;;25.06;33.18;100993.81;5017342;28;45504;-67
2022/07/28 07:15:07;;;;;;;;;5.00;5.00;;;;;25.06;32.56;101006.59;5017654;28;45266;-68
2022/07/28 07:17:32;;;;;;;;;7.00;6.00;;;;;25.07;32.63;101014.50;5017888;28;45526;-68
2022/07/28 07:19:58;;;;;;;;;6.67;5.67;;;;;24.67;32.96;100987.03;5016092;28;45360;-66
2022/07/28 07:22:24;;;;;;;;;5.00;5.00;;;;;24.65;33.21;101010.91;5017518;28;46488;-68
2022/07/28 07:24:49;;;;;;;;;3.00;3.00;;;;;24.43;33.13;100979.88;5017697;28;45532;-68
2022/07/28 07:27:14;;;;;;;;;7.00;7.00;;;;;24.72;33.74;101011.66;5017494;28;45240;-68
2022/07/28 07:29:40;;;;;;;;;5.67;4.00;;;;;24.71;33.42;101001.84;5017658;28;45204;-67
2022/07/28 07:32:05;;;;;;;;;7.00;6.00;;;;;24.75;33.27;101013.06;5017144;28;45662;-68
2022/07/28 07:34:31;;;;;;;;;7.00;7.00;;;;;24.62;33.30;100989.59;5017341;28;45305;-67
2022/07/28 07:36:56;;;;;;;;;5.00;5.00;;;;;24.79;32.59;101006.09;5017558;28;45320;-68
2022/07/28 07:39:21;;;;;;;;;8.00;7.00;;;;;24.50;33.02;100920.78;5017724;28;45285;-67
2022/07/28 07:41:47;;;;;;;;;6.00;6.00;;;;;25.16;31.92;100927.91;5016887;28;45797;-67
2022/07/28 07:44:12;;;;;;;;;6.33;5.00;;;;;26.27;31.08;101014.06;5016757;28;45251;-68
2022/07/28 07:46:38;;;;;;;;;6.00;6.00;;;;;26.82;30.04;101007.22;5032563;28;45506;-66
2022/07/28 07:49:04;;;;;;;;;8.33;8.33;;;;;27.23;29.53;100990.53;5015869;28;45413;-66
2022/07/28 07:51:30;;;;;;;;;5.33;5.33;;;;;27.61;29.03;100985.34;5016919;28;46241;-66
2022/07/28 07:53:55;;;;;;;;;7.67;6.00;;;;;28.06;28.17;100988.75;5016749;28;45349;-66
2022/07/28 07:56:20;;;;;;;;;5.67;5.67;;;;;28.69;27.40;101001.00;5017014;28;45776;-66
2022/07/28 07:58:46;;;;;;;;;5.00;4.00;;;;;28.74;27.50;101006.50;5017378;28;45279;-68
2022/07/28 08:01:12;;;;;;;;;25.67;22.33;;;;;28.51;27.39;100990.41;5015432;28;47324;-66
2022/07/28 08:03:37;;;;;;;;;9.00;5.00;;;;;28.60;28.08;101005.25;5016948;28;45404;-67
2022/07/28 08:06:03;;;;;;;;;4.00;4.00;;;;;28.68;27.54;100985.66;5017020;28;45399;-67
2022/07/28 08:08:28;;;;;;;;;8.33;7.00;;;;;29.16;26.55;100997.63;5017053;28;45462;-65
2022/07/28 08:10:54;;;;;;;;;6.33;6.00;;;;;29.78;26.09;100998.91;5016951;28;46024;-67
2022/07/28 08:13:19;;;;;;;;;8.00;6.00;;;;;30.33;25.01;100989.34;5015377;28;46184;-67
2022/07/28 08:15:46;;;;;;;;;10.00;7.00;;;;;30.97;23.82;100992.50;5016658;28;45215;-67
2022/07/28 08:18:12;;;;;;;;;7.00;7.00;;;;;31.55;23.03;100990.31;5016933;28;45370;-66
2022/07/28 08:20:37;;;;;;;;;7.00;6.00;;;;;31.74;22.61;100974.91;5020157;28;46524;-67
2022/07/28 08:23:02;;;;;;;;;7.67;6.67;;;;;32.06;22.77;100982.78;5019961;28;45214;-67
2022/07/28 08:25:28;;;;;;;;;7.00;7.00;;;;;31.72;22.51;100968.84;5035626;28;45474;-68
2022/07/28 08:27:53;;;;;;;;;7.00;7.00;;;;;32.07;22.59;100956.09;5020641;28;45182;-65
2022/07/28 08:30:19;;;;;;;;;6.00;6.00;;;;;32.24;21.96;100915.28;5035317;28;45712;-67
2022/07/28 08:32:45;;;;;;;;;5.00;4.00;;;;;32.92;21.76;100981.47;5020006;28;45483;-67
2022/07/28 08:35:10;;;;;;;;;6.33;5.33;;;;;33.23;21.23;100959.16;5019863;28;45363;-67
2022/07/28 08:37:38;;;;;;;;;5.67;5.67;;;;;33.32;21.14;100970.41;5020522;28;45553;-68
2022/07/28 08:40:13;;;;;;;;;4.67;4.67;;;;;33.58;21.11;100956.09;5018062;28;47814;-67
2022/07/28 08:43:04;;;;;;;;;6.00;6.00;;;;;34.31;19.78;100990.00;5019988;28;45490;-67
2022/07/28 08:45:35;;;;;;;;;7.67;7.00;;;;;34.70;19.63;100986.97;5018457;28;45480;-67
2022/07/28 08:48:03;;;;;;;;;7.67;5.67;;;;;34.61;19.32;100972.19;5019977;28;45267;-69
2022/07/28 08:50:30;;;;;;;;;6.67;6.67;;;;;35.05;19.13;100974.56;5018025;28;45333;-67
2022/07/28 08:52:57;;;;;;;;;4.00;4.00;;;;;35.02;19.13;100964.09;5019663;28;45506;-67
2022/07/28 08:55:25;;;;;;;;;8.33;7.00;;;;;35.04;19.04;100981.19;5019817;28;46066;-67
2022/07/28 08:57:56;;;;;;;;;6.00;4.67;;;;;35.00;18.66;100971.88;5035204;28;45503;-66
2022/07/28 09:00:22;;;;;;;;;7.33;7.33;;;;;35.18;19.05;100965.47;5018105;28;47869;-68
2022/07/28 09:02:49;;;;;;;;;5.00;5.00;;;;;35.34;18.69;100919.03;5019180;28;45366;-67
2022/07/28 09:05:19;;;;;;;;;8.33;6.33;;;;;36.08;18.54;100960.50;5019240;28;45288;-66
2022/07/28 09:07:50;;;;;;;;;8.67;7.33;;;;;36.18;17.91;100966.59;5017980;28;45371;-67
2022/07/28 09:10:17;;;;;;;;;9.00;5.67;;;;;36.33;18.44;100973.78;5019147;28;45378;-66
2022/07/28 09:12:42;;;;;;;;;6.67;6.67;;;;;36.42;17.93;100963.59;5019422;28;45466;-68
2022/07/28 09:15:10;;;;;;;;;5.00;5.00;;;;;36.35;18.14;100971.53;5019557;28;45288;-68
2022/07/28 09:17:36;;;;;;;;;7.00;5.67;;;;;36.41;17.60;100975.81;5019706;28;45515;-67
2022/07/28 09:20:04;;;;;;;;;4.00;3.67;;;;;36.65;17.71;100974.75;5018934;28;45843;-69
2022/07/28 09:22:32;;;;;;;;;6.33;6.00;;;;;36.85;17.10;100929.94;5019048;28;45496;-67
2022/07/28 09:25:02;;;;;;;;;4.67;4.67;;;;;37.67;16.14;100964.66;5034290;28;45287;-68
2022/07/28 09:27:41;;;;;;;;;4.00;4.00;;;;;38.33;15.88;100963.56;5034816;28;45468;-67
2022/07/28 09:30:07;;;;;;;;;6.00;5.00;;;;;38.90;15.79;100965.38;5018058;28;45291;-67
2022/07/28 09:32:33;;;;;;;;;5.00;5.00;;;;;39.25;14.44;100966.16;5018815;28;45631;-67
2022/07/28 09:34:58;;;;;;;;;7.00;6.00;;;;;39.38;14.73;100937.28;5019328;28;45270;-67
2022/07/28 09:37:25;;;;;;;;;12.33;9.33;;;;;39.51;14.28;100914.03;5019304;28;45645;-68
2022/07/28 09:39:53;;;;;;;;;4.67;4.67;;;;;40.13;14.10;100965.44;5017581;28;48140;-65
2022/07/28 09:42:19;;;;;;;;;3.33;3.33;;;;;41.04;13.07;100949.75;5018542;28;45406;-66
2022/07/28 09:45:00;;;;;;;;;5.00;5.00;;;;;41.48;13.33;100956.50;5019145;28;45242;-68
2022/07/28 09:47:29;;;;;;;;;4.00;4.00;;;;;41.51;12.87;100946.63;5019451;28;45444;-68
2022/07/28 09:49:54;;;;;;;;;5.00;5.00;;;;;41.63;13.55;100930.69;5018776;28;46737;-68
2022/07/28 09:52:34;;;;;;;;;4.00;4.00;;;;;41.92;12.27;100943.63;5018869;28;45276;-68
2022/07/28 09:55:04;;;;;;;;;4.00;4.00;;;;;41.21;11.87;100851.94;5019118;28;45367;-68
2022/07/28 09:57:30;;;;;;;;;4.00;4.00;;;;;41.61;12.17;100943.34;5018860;28;45508;-67
2022/07/28 09:59:56;;;;;;;;;5.00;3.33;;;;;42.00;12.30;100943.81;5018501;28;45814;-66
2022/07/28 10:02:30;;;;;;;;;5.33;3.67;;;;;42.54;11.44;100944.31;5018642;28;45316;-67
2022/07/28 10:04:58;;;;;;;;;4.67;4.67;;;;;42.47;11.76;100924.53;5018861;28;45580;-66
2022/07/28 10:07:24;;;;;;;;;5.00;4.00;;;;;41.96;12.23;100937.31;5018744;28;45460;-68
2022/07/28 10:10:01;;;;;;;;;4.00;2.67;;;;;41.34;12.54;100942.06;5018621;28;45592;-68
2022/07/28 10:12:29;;;;;;;;;2.67;2.67;;;;;40.29;12.82;100937.81;5018258;28;45407;-68
2022/07/28 10:14:58;;;;;;;;;3.00;3.00;;;;;39.38;13.55;100937.28;5018789;28;45519;-68
2022/07/28 10:17:33;;;;;;;;;2.33;1.00;;;;;38.54;13.61;100924.00;5018818;28;45328;-69
2022/07/28 10:20:01;;;;;;;;;2.67;2.67;;;;;37.45;14.16;100879.56;5018356;28;46159;-67
2022/07/28 10:22:32;;;;;;;;;3.00;3.00;;;;;37.00;15.26;100942.56;5018465;28;45300;-68
2022/07/28 10:25:06;;;;;;;;;3.67;3.67;;;;;36.30;15.95;100924.56;5017077;28;45287;-68
2022/07/28 10:27:32;;;;;;;;;5.33;3.67;;;;;35.95;15.85;100934.47;5017219;28;45384;-68
2022/07/28 10:29:59;;;;;;;;;2.33;2.33;;;;;35.51;16.46;100911.00;5017976;28;45806;-67
2022/07/28 10:32:28;;;;;;;;;4.00;4.00;;;;;34.96;16.98;100935.75;5033271;28;45429;-68
2022/07/28 10:35:06;;;;;;;;;2.00;2.00;;;;;34.20;17.54;100922.25;5018466;28;45328;-67
2022/07/28 10:37:37;;;;;;;;;2.33;2.33;;;;;33.76;18.09;100912.31;5017161;28;45522;-67
2022/07/28 10:40:06;;;;;;;;;3.00;3.00;;;;;33.74;18.36;100931.09;5016387;28;48219;-68
2022/07/28 10:42:32;;;;;;;;;6.00;3.67;;;;;33.02;18.70;100925.47;5017595;28;45249;-68
2022/07/28 10:44:58;;;;;;;;;7.00;7.00;;;;;32.63;19.45;100937.31;5016704;28;45550;-67
2022/07/28 10:47:26;;;;;;;;;2.67;2.67;;;;;32.61;19.58;100936.78;5018164;28;45399;-68
2022/07/28 10:49:52;;;;;;;;;6.00;6.00;;;;;32.37;19.66;100920.16;5017693;28;46372;-68
2022/07/28 10:52:18;;;;;;;;;3.33;3.33;;;;;32.34;19.90;100930.94;5017980;28;45518;-67
2022/07/28 10:55:10;;;;;;;;;5.00;5.00;;;;;31.85;20.47;100886.91;5033299;28;45333;-67
2022/07/28 10:57:40;;;;;;;;;5.67;4.00;;;;;32.04;20.41;100931.91;5018004;28;45682;-67
2022/07/28 11:00:16;;;;;;;;;5.00;5.00;;;;;32.09;20.11;100931.88;5017802;28;45795;-67
2022/07/28 11:02:42;;;;;;;;;5.33;5.33;;;;;32.17;20.09;100925.75;5017891;28;45288;-67
2022/07/28 11:05:26;;;;;;;;;4.33;4.00;;;;;32.15;20.24;100918.91;5017736;28;45740;-68
2022/07/28 11:07:51;;;;;;;;;8.00;8.00;;;;;31.94;20.33;100879.69;5018215;28;45515;-68
2022/07/28 11:10:19;;;;;;;;;3.00;3.00;;;;;31.61;20.59;100853.69;5017663;28;45555;-67
2022/07/28 11:12:50;;;;;;;;;5.67;4.33;;;;;31.69;20.60;100913.59;5017717;28;45289;-69
2022/07/28 11:15:33;;;;;;;;;4.00;2.67;;;;;31.22;21.10;100889.25;5017714;28;45233;-67
2022/07/28 11:18:09;;;;;;;;;2.00;2.00;;;;;30.54;21.06;100865.63;5018188;28;45391;-68
2022/07/28 11:20:50;;;;;;;;;2.33;2.33;;;;;30.64;21.16;100929.91;5018109;28;45240;-67
2022/07/28 11:23:37;;;;;;;;;3.00;3.00;;;;;30.51;21.87;100921.06;5017648;28;45328;-67
2022/07/28 11:26:26;;;;;;;;;6.00;5.00;;;;;30.17;21.67;100928.94;5017799;28;45447;-68
2022/07/28 11:29:11;;;;;;;;;5.00;5.00;;;;;30.04;22.32;100932.19;5017895;28;45469;-67
2022/07/28 11:31:43;;;;;;;;;4.33;3.00;;;;;29.83;22.47;100920.28;5016780;28;46421;-67